createdAt,value
2023-04-20T00:00:44.157Z,16.90
2023-04-20T00:03:29.493Z,22.92
2023-04-20T00:06:15.482Z,22.70
2023-04-20T00:09:01.806Z,17.30
2023-04-20T00:11:46.831Z,19.92
2023-04-20T00:14:32.021Z,22.20
2023-04-20T00:17:17.820Z,22.00
2023-04-20T00:20:03.743Z,19.65
2023-04-20T00:22:48.778Z,16.88
2023-04-20T00:25:37.112Z,14.40
2023-04-20T00:28:22.282Z,19.58
2023-04-20T00:31:07.358Z,19.95
2023-04-20T00:33:52.386Z,15.90
2023-04-20T00:36:37.302Z,16.95
2023-04-20T00:39:22.683Z,17.77
2023-04-20T00:42:08.998Z,13.32
2023-04-20T00:44:54.535Z,14.40
2023-04-20T00:47:39.881Z,24.92
2023-04-20T00:50:24.936Z,18.23
2023-04-20T00:53:11.301Z,20.02
2023-04-20T00:55:56.668Z,23.17
2023-04-20T00:58:43.664Z,11.48
2023-04-20T01:01:29.110Z,11.27
2023-04-20T01:04:14.437Z,17.25
2023-04-20T01:06:59.691Z,13.00
2023-04-20T01:09:44.650Z,12.07
2023-04-20T01:12:29.822Z,23.27
2023-04-20T01:15:14.853Z,16.83
2023-04-20T01:18:00.202Z,16.38
2023-04-20T01:20:47.133Z,23.13
2023-04-20T01:23:35.033Z,14.15
2023-04-20T01:26:20.934Z,16.65
2023-04-20T01:29:06.014Z,20.33
2023-04-20T01:31:51.614Z,20.85
2023-04-20T01:34:37.492Z,20.77
2023-04-20T01:37:22.491Z,19.85
2023-04-20T01:40:12.884Z,17.00
2023-04-20T01:42:57.969Z,11.73
2023-04-20T01:45:43.317Z,16.48
2023-04-20T01:48:28.662Z,17.60
2023-04-20T01:51:13.957Z,20.48
2023-04-20T01:53:59.824Z,21.65
2023-04-20T01:56:45.122Z,20.27
2023-04-20T01:59:30.068Z,20.95
2023-04-20T02:02:15.402Z,16.10
2023-04-20T02:05:01.038Z,20.48
2023-04-20T02:07:46.129Z,22.08
2023-04-20T02:10:31.247Z,22.27
2023-04-20T02:13:16.522Z,17.65
2023-04-20T02:16:01.896Z,16.75
2023-04-20T02:18:47.300Z,20.75
2023-04-20T02:21:32.623Z,19.42
2023-04-20T02:24:17.892Z,19.65
2023-04-20T02:27:03.525Z,26.38
2023-04-20T02:29:49.038Z,23.27
2023-04-20T02:32:35.163Z,20.90
2023-04-20T02:35:20.770Z,21.85
2023-04-20T02:38:06.076Z,19.35
2023-04-20T02:40:51.283Z,28.55
2023-04-20T02:43:36.579Z,25.02
2023-04-20T02:46:21.724Z,19.98
2023-04-20T02:49:07.154Z,19.55
2023-04-20T02:51:52.055Z,17.77
2023-04-20T02:54:36.945Z,16.88
2023-04-20T02:57:22.205Z,21.17
2023-04-20T03:00:08.910Z,18.85
2023-04-20T03:02:54.484Z,21.42
2023-04-20T03:05:40.225Z,25.50
2023-04-20T03:08:25.637Z,21.38
2023-04-20T03:11:10.878Z,15.00
2023-04-20T03:13:55.841Z,22.40
2023-04-20T03:16:41.553Z,17.75
2023-04-20T03:19:26.823Z,25.60
2023-04-20T03:22:12.036Z,22.20
2023-04-20T03:24:57.118Z,20.02
2023-04-20T03:27:42.239Z,20.33
2023-04-20T03:30:27.429Z,16.92
2023-04-20T03:33:12.628Z,21.35
2023-04-20T03:35:57.792Z,21.05
2023-04-20T03:38:43.162Z,23.42
2023-04-20T03:41:28.166Z,25.02
2023-04-20T03:44:14.087Z,19.90
2023-04-20T03:46:59.050Z,16.80
2023-04-20T03:49:44.188Z,27.00
2023-04-20T03:52:29.655Z,26.92
2023-04-20T03:55:14.674Z,17.33
2023-04-20T03:57:59.656Z,18.55
2023-04-20T04:00:44.739Z,23.80
2023-04-20T04:03:30.378Z,19.48
2023-04-20T04:06:15.636Z,19.80
2023-04-20T04:09:01.008Z,24.45
2023-04-20T04:11:46.147Z,29.67
2023-04-20T04:14:32.585Z,18.77
2023-04-20T04:17:18.015Z,41.22
2023-04-20T04:20:03.501Z,22.27
2023-04-20T04:22:48.705Z,23.48
2023-04-20T04:25:33.782Z,23.83
2023-04-20T04:28:19.209Z,21.83
2023-04-20T04:31:06.052Z,22.25
2023-04-20T04:33:51.507Z,22.48
2023-04-20T04:36:36.741Z,23.08
2023-04-20T04:39:21.822Z,24.83
2023-04-20T04:42:06.917Z,20.50
2023-04-20T04:44:53.673Z,20.27
2023-04-20T04:47:41.135Z,20.27
2023-04-20T04:50:26.346Z,16.83
2023-04-20T04:53:11.225Z,17.85
2023-04-20T04:55:56.368Z,21.08
2023-04-20T04:58:41.630Z,17.00
2023-04-20T05:01:26.496Z,18.92
2023-04-20T05:04:11.436Z,20.25
2023-04-20T05:06:56.873Z,19.65
2023-04-20T05:09:41.767Z,20.95
2023-04-20T05:12:26.670Z,27.98
2023-04-20T05:15:12.104Z,20.08
2023-04-20T05:17:57.790Z,19.98
2023-04-20T05:20:43.066Z,19.35
2023-04-20T05:23:28.254Z,22.98
2023-04-20T05:26:16.149Z,18.50
2023-04-20T05:29:01.692Z,27.58
2023-04-20T05:31:46.977Z,14.35
2023-04-20T05:34:32.090Z,26.13
2023-04-20T05:37:17.232Z,26.25
2023-04-20T05:40:02.444Z,21.20
2023-04-20T05:42:47.511Z,25.88
2023-04-20T05:45:34.372Z,14.43
2023-04-20T05:48:19.408Z,25.40
2023-04-20T05:51:04.523Z,18.73
2023-04-20T05:53:49.718Z,19.52
2023-04-20T05:56:34.725Z,18.65
2023-04-20T05:59:20.661Z,20.15
2023-04-20T06:02:06.236Z,20.50
2023-04-20T06:04:51.530Z,19.95
2023-04-20T06:07:37.470Z,27.83
2023-04-20T06:10:22.782Z,26.60
2023-04-20T06:13:07.968Z,17.80
2023-04-20T06:15:54.067Z,23.02
2023-04-20T06:18:39.534Z,13.82
2023-04-20T06:21:25.088Z,17.15
2023-04-20T06:24:09.948Z,16.92
2023-04-20T06:26:54.914Z,12.77
2023-04-20T06:29:40.171Z,18.20
2023-04-20T06:32:25.210Z,13.93
2023-04-20T06:35:10.551Z,17.00
2023-04-20T06:37:57.490Z,21.30
2023-04-20T06:40:42.580Z,20.20
2023-04-20T06:43:27.648Z,12.13
2023-04-20T06:46:12.899Z,16.77
2023-04-20T06:48:59.197Z,20.63
2023-04-20T06:51:44.445Z,12.93
2023-04-20T06:54:29.365Z,14.60
2023-04-20T06:57:14.359Z,10.40
2023-04-20T06:59:59.218Z,16.77
2023-04-20T07:02:45.857Z,12.13
2023-04-20T07:05:31.199Z,15.73
2023-04-20T07:08:17.032Z,13.93
2023-04-20T07:11:02.104Z,10.68
2023-04-20T07:13:46.947Z,14.95
2023-04-20T07:16:32.076Z,12.50
2023-04-20T07:19:17.725Z,10.93
2023-04-20T07:22:03.142Z,8.05
2023-04-20T07:24:48.308Z,13.27
2023-04-20T07:27:38.512Z,9.30
2023-04-20T07:33:09.132Z,13.02
2023-04-20T07:35:54.360Z,14.25
2023-04-20T07:38:39.474Z,13.63
2023-04-20T07:41:24.465Z,11.32
2023-04-20T07:44:09.607Z,13.40
2023-04-20T07:46:55.540Z,9.88
2023-04-20T07:49:41.145Z,12.52
2023-04-20T07:52:26.545Z,12.27
2023-04-20T07:55:12.026Z,13.55
2023-04-20T07:57:57.861Z,18.30
2023-04-20T08:00:42.930Z,16.80
2023-04-20T08:03:28.987Z,8.95
2023-04-20T08:06:14.329Z,7.63
2023-04-20T08:08:59.292Z,12.15
2023-04-20T08:11:46.191Z,8.38
2023-04-20T08:14:31.653Z,8.45
2023-04-20T08:17:16.647Z,11.27
2023-04-20T08:20:02.300Z,7.60
2023-04-20T08:22:47.470Z,6.28
2023-04-20T08:25:32.612Z,13.05
2023-04-20T08:28:32.456Z,7.20
2023-04-20T08:31:18.913Z,9.85
2023-04-20T08:34:04.101Z,15.32
2023-04-20T08:36:49.318Z,11.45
2023-04-20T08:39:34.769Z,11.10
2023-04-20T08:42:20.077Z,8.07
2023-04-20T08:45:05.734Z,7.93
2023-04-20T08:47:51.115Z,9.35
2023-04-20T08:50:37.416Z,8.30
2023-04-20T08:53:22.764Z,9.35
2023-04-20T08:56:08.229Z,8.13
2023-04-20T08:58:53.476Z,9.18
2023-04-20T09:01:39.534Z,7.47
2023-04-20T09:04:29.473Z,8.68
2023-04-20T09:07:21.595Z,12.02
2023-04-20T09:10:07.064Z,10.30
2023-04-20T09:12:53.331Z,8.35
2023-04-20T09:15:38.497Z,13.85
2023-04-20T09:18:24.844Z,6.38
2023-04-20T09:21:10.475Z,8.27
2023-04-20T09:24:03.403Z,4.38
2023-04-20T09:26:48.639Z,7.55
2023-04-20T09:29:33.595Z,10.13
2023-04-20T09:32:26.112Z,7.53
2023-04-20T09:35:11.053Z,8.00
2023-04-20T09:37:56.429Z,8.23
2023-04-20T09:40:41.679Z,5.18
2023-04-20T09:43:28.175Z,2.22
2023-04-20T09:46:13.391Z,4.82
2023-04-20T09:49:03.515Z,4.88
2023-04-20T09:51:49.086Z,4.05
2023-04-20T09:54:36.874Z,2.97
2023-04-20T09:57:22.995Z,2.80
2023-04-20T10:00:12.462Z,8.52
2023-04-20T10:02:58.029Z,3.15
2023-04-20T10:05:43.211Z,5.82
2023-04-20T10:08:28.589Z,4.63
2023-04-20T10:11:48.935Z,8.60
2023-04-20T10:14:37.301Z,9.38
2023-04-20T10:17:30.604Z,6.18
2023-04-20T10:20:28.105Z,6.68
2023-04-20T10:23:18.385Z,7.60
2023-04-20T10:26:03.882Z,7.28
2023-04-20T10:28:49.360Z,5.82
2023-04-20T10:31:42.081Z,8.10
2023-04-20T10:34:35.355Z,3.85
2023-04-20T10:37:20.679Z,6.07
2023-04-20T10:40:08.095Z,2.05
2023-04-20T10:42:53.645Z,2.13
2023-04-20T10:45:40.167Z,4.85
2023-04-20T10:48:25.492Z,5.47
2023-04-20T10:51:10.812Z,4.43
2023-04-20T10:54:07.972Z,1.80
2023-04-20T10:56:54.535Z,3.75
2023-04-20T10:59:41.417Z,4.43
2023-04-20T11:02:28.244Z,4.63
2023-04-20T11:05:14.002Z,8.52
2023-04-20T11:08:01.192Z,5.10
2023-04-20T11:10:46.594Z,1.33
2023-04-20T11:13:32.886Z,2.95
2023-04-20T11:16:19.477Z,13.10
2023-04-20T11:19:05.833Z,5.38
2023-04-20T11:21:51.294Z,5.05
2023-04-20T11:24:37.465Z,3.33
2023-04-20T11:27:22.713Z,4.95
2023-04-20T11:30:09.809Z,5.10
2023-04-20T11:32:55.265Z,3.65
2023-04-20T11:35:42.285Z,4.28
2023-04-20T11:38:32.235Z,4.13
2023-04-20T11:41:17.825Z,2.35
2023-04-20T11:44:02.821Z,1.65
2023-04-20T11:46:53.253Z,3.30
2023-04-20T11:49:38.926Z,5.93
2023-04-20T11:52:24.142Z,5.55
2023-04-20T11:55:09.690Z,2.15
2023-04-20T11:57:54.578Z,6.40
2023-04-20T12:00:39.518Z,3.00
2023-04-20T12:03:24.817Z,3.00
2023-04-20T12:06:10.360Z,6.05
2023-04-20T12:08:56.421Z,6.18
2023-04-20T12:11:41.400Z,4.82
2023-04-20T12:14:27.195Z,4.47
2023-04-20T12:17:12.710Z,7.35
2023-04-20T12:19:58.001Z,4.05
2023-04-20T12:22:43.398Z,6.53
2023-04-20T12:25:28.512Z,5.85
2023-04-20T12:28:14.307Z,17.50
2023-04-20T12:30:59.514Z,5.25
2023-04-20T12:33:44.900Z,5.40
2023-04-20T12:36:30.409Z,7.13
2023-04-20T12:39:16.000Z,5.70
2023-04-20T12:42:02.363Z,5.20
2023-04-20T12:44:47.360Z,6.97
2023-04-20T12:47:32.371Z,4.70
2023-04-20T12:50:17.638Z,5.38
2023-04-20T12:53:02.933Z,4.53
2023-04-20T12:55:49.535Z,4.45
2023-04-20T12:58:38.434Z,7.40
2023-04-20T13:01:23.340Z,3.63
2023-04-20T13:04:09.116Z,4.43
2023-04-20T13:06:54.205Z,5.25
2023-04-20T13:09:39.387Z,9.93
2023-04-20T13:12:24.662Z,7.80
2023-04-20T13:15:09.945Z,4.40
2023-04-20T13:17:55.312Z,4.25
2023-04-20T13:20:40.724Z,4.25
2023-04-20T13:23:26.081Z,5.05
2023-04-20T13:26:11.565Z,7.35
2023-04-20T13:28:58.352Z,3.17
2023-04-20T13:31:43.626Z,4.07
2023-04-20T13:34:28.848Z,4.53
2023-04-20T13:37:14.115Z,10.77
2023-04-20T13:40:00.100Z,8.25
2023-04-20T13:42:45.188Z,7.60
2023-04-20T13:45:30.684Z,5.05
2023-04-20T13:48:16.104Z,7.95
2023-04-20T13:51:01.351Z,7.65
2023-04-20T13:53:48.420Z,4.20
2023-04-20T13:56:34.455Z,4.72
2023-04-20T13:59:19.726Z,4.38
2023-04-20T14:02:04.742Z,5.72
2023-04-20T14:04:50.020Z,6.53
2023-04-20T14:07:35.578Z,5.82
2023-04-20T14:10:20.876Z,7.93
2023-04-20T14:13:07.136Z,8.40
2023-04-20T14:15:53.984Z,8.98
2023-04-20T14:18:39.342Z,5.13
2023-04-20T14:21:24.694Z,7.82
2023-04-20T14:24:13.784Z,11.95
2023-04-20T14:26:59.869Z,14.65
2023-04-20T14:29:45.235Z,6.88
2023-04-20T14:32:31.331Z,7.05
2023-04-20T14:35:16.806Z,8.45
2023-04-20T14:38:02.077Z,6.50
2023-04-20T14:40:48.308Z,9.35
2023-04-20T14:43:34.495Z,14.10
2023-04-20T14:46:19.770Z,14.13
2023-04-20T14:49:05.379Z,12.45
2023-04-20T14:51:50.973Z,12.90
2023-04-20T14:54:36.058Z,15.00
2023-04-20T14:57:21.704Z,11.60
2023-04-20T15:00:07.393Z,12.48
2023-04-20T15:02:53.499Z,13.70
2023-04-20T15:05:39.685Z,17.50
2023-04-20T15:08:25.020Z,17.10
2023-04-20T15:11:10.179Z,19.90
2023-04-20T15:13:55.479Z,13.98
2023-04-20T15:16:40.892Z,16.27
2023-04-20T15:19:26.214Z,12.32
2023-04-20T15:22:14.712Z,13.10
2023-04-20T15:24:59.749Z,16.42
2023-04-20T15:27:44.701Z,16.48
2023-04-20T15:30:30.646Z,12.65
2023-04-20T15:33:15.960Z,15.18
2023-04-20T15:36:00.869Z,19.20
2023-04-20T15:38:46.287Z,11.07
2023-04-20T15:41:31.178Z,17.05
2023-04-20T15:44:17.062Z,14.63
2023-04-20T15:47:03.378Z,14.02
2023-04-20T15:49:48.181Z,12.98
2023-04-20T15:52:33.431Z,12.00
2023-04-20T15:55:18.614Z,10.65
2023-04-20T15:58:03.791Z,8.60
2023-04-20T16:00:48.684Z,8.30
2023-04-20T16:03:33.861Z,7.43
2023-04-20T16:06:19.228Z,9.05
2023-04-20T16:09:04.342Z,18.33
2023-04-20T16:11:49.679Z,11.23
2023-04-20T16:14:34.920Z,12.80
2023-04-20T16:17:20.027Z,12.98
2023-04-20T16:20:06.021Z,14.98
2023-04-20T16:22:51.365Z,13.32
2023-04-20T16:25:38.334Z,12.25
2023-04-20T16:28:23.625Z,11.65
2023-04-20T16:31:08.634Z,8.63
2023-04-20T16:33:54.052Z,12.63
2023-04-20T16:36:39.048Z,12.55
2023-04-20T16:39:23.959Z,8.73
2023-04-20T16:42:09.214Z,7.95
2023-04-20T16:44:55.688Z,10.90
2023-04-20T16:47:40.771Z,9.70
2023-04-20T16:50:26.137Z,9.82
2023-04-20T16:53:11.414Z,6.63
2023-04-20T16:55:56.548Z,6.25
2023-04-20T16:58:41.946Z,5.90
2023-04-20T17:01:27.410Z,5.57
2023-04-20T17:04:13.400Z,9.23
2023-04-20T17:06:58.549Z,6.90
2023-04-20T17:09:43.565Z,7.18
2023-04-20T17:12:29.310Z,10.23
2023-04-20T17:15:14.582Z,6.95
2023-04-20T17:17:59.707Z,6.25
2023-04-20T17:20:45.988Z,6.43
2023-04-20T17:23:34.108Z,6.97
2023-04-20T17:26:19.106Z,9.40
2023-04-20T17:29:04.724Z,9.43
2023-04-20T17:31:50.249Z,8.20
2023-04-20T17:34:35.861Z,9.52
2023-04-20T17:37:22.217Z,6.78
2023-04-20T17:40:08.388Z,10.98
2023-04-20T17:42:53.248Z,11.27
2023-04-20T17:45:38.300Z,9.63
2023-04-20T17:48:23.255Z,13.63
2023-04-20T17:51:08.524Z,10.18
2023-04-20T17:53:53.520Z,11.45
2023-04-20T17:56:38.447Z,16.73
2023-04-20T17:59:23.429Z,10.80
2023-04-20T18:02:09.232Z,7.32
2023-04-20T18:04:57.489Z,11.00
2023-04-20T18:07:42.781Z,10.50
2023-04-20T18:10:28.022Z,12.38
2023-04-20T18:13:13.267Z,13.52
2023-04-20T18:15:59.683Z,12.13
2023-04-20T18:18:44.779Z,11.70
2023-04-20T18:21:30.153Z,10.60
2023-04-20T18:24:15.368Z,8.02
2023-04-20T18:27:01.239Z,11.90
2023-04-20T18:29:46.405Z,9.85
2023-04-20T18:32:32.910Z,16.60
2023-04-20T18:35:19.331Z,14.45
2023-04-20T18:38:05.933Z,13.68
2023-04-20T18:40:51.136Z,10.63
2023-04-20T18:43:36.088Z,11.43
2023-04-20T18:46:20.923Z,10.93
2023-04-20T18:49:06.238Z,13.25
2023-04-20T18:51:51.465Z,14.73
2023-04-20T18:54:38.317Z,16.45
2023-04-20T18:57:26.193Z,16.50
2023-04-20T19:00:11.752Z,16.52
2023-04-20T19:02:57.221Z,15.15
2023-04-20T19:05:42.232Z,15.93
2023-04-20T19:08:27.550Z,22.73
2023-04-20T19:11:12.520Z,10.57
2023-04-20T19:13:57.455Z,16.48
2023-04-20T19:16:42.730Z,15.18
2023-04-20T19:19:28.169Z,19.83
2023-04-20T19:22:13.280Z,15.60
2023-04-20T19:24:58.495Z,19.20
2023-04-20T19:27:43.760Z,15.00
2023-04-20T19:30:29.244Z,16.75
2023-04-20T19:33:14.538Z,18.13
2023-04-20T19:36:00.659Z,13.82
2023-04-20T19:38:45.793Z,14.45
2023-04-20T19:41:30.975Z,16.67
2023-04-20T19:44:16.306Z,16.00
2023-04-20T19:47:01.579Z,13.93
2023-04-20T19:49:46.769Z,22.08
2023-04-20T19:52:34.268Z,15.45
2023-04-20T19:55:19.266Z,12.52
2023-04-20T19:58:09.130Z,15.68
2023-04-20T20:03:40.165Z,13.85
2023-04-20T20:06:26.881Z,14.98
2023-04-20T20:09:12.104Z,15.23
2023-04-20T20:11:57.467Z,21.48
2023-04-20T20:14:42.698Z,16.35
2023-04-20T20:17:27.919Z,17.15
2023-04-20T20:20:15.243Z,15.55
2023-04-20T20:23:00.665Z,19.27
2023-04-20T20:25:46.136Z,22.73
2023-04-20T20:28:31.339Z,19.17
2023-04-20T20:31:16.733Z,15.75
2023-04-20T20:34:01.741Z,14.75
2023-04-20T20:36:48.170Z,13.57
2023-04-20T20:39:33.234Z,18.40
2023-04-20T20:42:19.180Z,14.90
2023-04-20T20:45:12.475Z,16.52
2023-04-20T20:47:57.784Z,11.15
2023-04-20T20:50:43.101Z,16.65
2023-04-20T20:53:28.388Z,23.65
2023-04-20T20:56:13.751Z,14.75
2023-04-20T20:58:58.600Z,15.07
2023-04-20T21:01:43.670Z,15.63
2023-04-20T21:04:29.917Z,16.15
2023-04-20T21:07:14.994Z,17.38
2023-04-20T21:10:00.341Z,17.02
2023-04-20T21:12:45.203Z,17.13
2023-04-20T21:15:30.284Z,16.42
2023-04-20T21:18:15.454Z,17.73
2023-04-20T21:21:00.756Z,18.55
2023-04-20T21:23:45.824Z,16.13
2023-04-20T21:26:35.638Z,16.42
2023-04-20T21:29:21.045Z,16.65
2023-04-20T21:32:06.121Z,19.00
2023-04-20T21:34:52.068Z,19.10
2023-04-20T21:37:37.645Z,17.70
2023-04-20T21:40:25.118Z,17.33
2023-04-20T21:43:10.711Z,20.40
2023-04-20T21:45:55.880Z,17.52
2023-04-20T21:48:41.044Z,16.42
2023-04-20T21:51:25.999Z,23.23
2023-04-20T21:54:11.914Z,23.27
2023-04-20T21:56:57.043Z,18.17
2023-04-20T21:59:42.326Z,23.17
2023-04-20T22:02:27.362Z,22.50
2023-04-20T22:05:12.805Z,19.90
2023-04-20T22:07:58.109Z,22.80
2023-04-20T22:10:43.369Z,20.20
2023-04-20T22:13:28.308Z,17.33
2023-04-20T22:16:13.979Z,14.88
2023-04-20T22:18:58.851Z,18.70
2023-04-20T22:21:43.749Z,21.13
2023-04-20T22:24:28.834Z,31.52
2023-04-20T22:27:13.809Z,24.48
2023-04-20T22:29:59.134Z,23.40
2023-04-20T22:32:44.378Z,20.60
2023-04-20T22:35:30.071Z,24.67
2023-04-20T22:38:15.356Z,21.70
2023-04-20T22:41:00.279Z,20.35
2023-04-20T22:43:45.511Z,19.98
2023-04-20T22:46:30.818Z,25.10
2023-04-20T22:49:15.984Z,24.95
2023-04-20T22:52:01.427Z,24.75
2023-04-20T22:54:48.250Z,27.90
2023-04-20T22:57:33.481Z,25.85
2023-04-20T23:00:18.600Z,23.63
2023-04-20T23:03:04.187Z,25.08
2023-04-20T23:05:49.354Z,23.20
2023-04-20T23:08:34.524Z,27.88
2023-04-20T23:11:20.706Z,24.48
2023-04-20T23:14:06.582Z,25.75
2023-04-20T23:16:51.781Z,28.45
2023-04-20T23:19:38.405Z,26.17
2023-04-20T23:22:23.529Z,21.13
2023-04-20T23:25:09.894Z,25.10
2023-04-20T23:27:54.873Z,23.13
2023-04-20T23:30:39.832Z,24.88
2023-04-20T23:33:24.994Z,22.80
2023-04-20T23:36:11.929Z,27.45
2023-04-20T23:38:56.996Z,22.60
2023-04-20T23:41:41.936Z,24.27
2023-04-20T23:44:26.919Z,24.98
2023-04-20T23:47:11.785Z,20.10
2023-04-20T23:49:56.811Z,28.25
2023-04-20T23:52:41.723Z,25.73
2023-04-20T23:55:26.910Z,28.92
2023-04-20T23:58:12.127Z,29.08
